Cayman Brac, Cayman Islands
Current Conditions -  °F | °C
As of 7:54 PM on Monday 20 Oct 2014 (Local Time) from MWCR Reporting Station
Few Clouds Few Clouds  
Wind Chill: 84°   Ceiling: Unl
Heat Index: 96°   Visibility: 6mi
Dew Point: 79°   Wind: 9mph
Humidity: 84%   Direction: 90°E
Pressure: 29.88"   Gusts: NA
Location:  19.72°N, 79.81°W
Report Text: MWCR 210054Z 09008KT 9999 FEW016 29/26 Q1012 NOSIG
Loading
Personal Weather Stations






























Interactive Weather Map
Tropical Storm Tracking
New forecast layout! Learn more

10-Day Weather Forecast

Advertisements
Track Severe Weather on mobile